Beaverton, Canada
Current Conditions -  °F | °C
As of 2:21 PM on Saturday 25 Oct 2014 (Local Time) from CYQA Reporting Station
Broken Clouds Broken Clouds  
Wind Chill: 13°   Ceiling: 2800
Heat Index: 13°   Visibility: 9mi
Dew Point: 10°   Wind: 12mph
Humidity: 82%   Direction: 250°WSW
Pressure: 29.54"   Gusts: 22mph
Location:  44.43°N, 79.15°W
Report Text: CYQA 251821Z AUTO 25010G19KT 230V290 9SM SCT017 BKN028 BKN043 13/10 A2954 RMK SLP010 DENSITY ALT 1200FT
Loading
Personal Weather Stations






























Interactive Weather Map
Tropical Storm Tracking
New forecast layout! Learn more

10-Day Weather Forecast

Advertisements
Track Severe Weather on mobile